EWG18QA LIPE-EDDK
Flight info
| Callsign | EWG18QA |
|---|---|
| Flight time | 1h 5m |
| Altitude | 34000 |
| Route | LUMAV L12 VIC DCT SOTOV DCT KPT L608 KOVAN T844 UMDAS/N0410F240 T844 ASKIK T840 GULKO GULKO1C |
| Aircraft | A320/M-SDE3FGHIRWY/LB1 |
Departure
| Time | 2026-04-24 09:22 |
|---|---|
| Airport | Bologna Guglielmo Marconi Airport (LIPE) |
Arrival
| Time | 2026-04-24 10:28 |
|---|---|
| Airport | Cologne Bonn Airport (EDDK) |
| Time | Latitude | Longitude | Altitude | Speed | Heading |
|---|---|---|---|---|---|
| 2026-04-24 09:09 | 44.53066 | 11.29314 | 131 ft | 0 kts | 207° |
| 2026-04-24 09:17 | 44.53070 | 11.29317 | 168 ft | 4 kts | 206° |
| 2026-04-24 09:18 | 44.53095 | 11.29331 | 166 ft | 4 kts | 193° |
| 2026-04-24 09:18 | 44.53121 | 11.29333 | 164 ft | 4 kts | 157° |
| 2026-04-24 09:18 | 44.53133 | 11.29321 | 163 ft | 0 kts | 116° |
| 2026-04-24 09:19 | 44.53132 | 11.29323 | 163 ft | 2 kts | 117° |
| 2026-04-24 09:19 | 44.53102 | 11.29402 | 164 ft | 17 kts | 118° |
| 2026-04-24 09:20 | 44.53033 | 11.29603 | 167 ft | 25 kts | 116° |
| 2026-04-24 09:20 | 44.52987 | 11.29780 | 169 ft | 12 kts | 56° |
| 2026-04-24 09:20 | 44.53051 | 11.29837 | 167 ft | 13 kts | 56° |
| 2026-04-24 09:20 | 44.53118 | 11.29962 | 162 ft | 16 kts | 34° |
| 2026-04-24 09:21 | 44.53164 | 11.29935 | 163 ft | 1 kts | 297° |
| 2026-04-24 09:21 | 44.53166 | 11.29932 | 165 ft | 1 kts | 297° |
| 2026-04-24 09:21 | 44.53254 | 11.29685 | 166 ft | 66 kts | 296° |
| 2026-04-24 09:21 | 44.53560 | 11.28827 | 163 ft | 128 kts | 298° |
| 2026-04-24 09:22 | 44.54016 | 11.27493 | 240 ft | 170 kts | 292° |
| 2026-04-24 09:22 | 44.54521 | 11.25972 | 801 ft | 173 kts | 292° |
| 2026-04-24 09:22 | 44.55049 | 11.24438 | 1557 ft | 175 kts | 295° |
| 2026-04-24 09:22 | 44.55624 | 11.22878 | 2083 ft | 186 kts | 298° |
| 2026-04-24 09:23 | 44.56288 | 11.21219 | 2435 ft | 203 kts | 301° |
| 2026-04-24 09:23 | 44.57375 | 11.19920 | 2782 ft | 219 kts | 345° |
| 2026-04-24 09:23 | 44.58934 | 11.20150 | 3113 ft | 243 kts | 28° |
| 2026-04-24 09:23 | 44.60092 | 11.21958 | 3556 ft | 263 kts | 60° |
| 2026-04-24 09:24 | 44.61023 | 11.24266 | 4167 ft | 276 kts | 58° |
| 2026-04-24 09:24 | 44.61972 | 11.26585 | 5176 ft | 273 kts | 58° |
| 2026-04-24 09:24 | 44.62917 | 11.28892 | 6155 ft | 271 kts | 58° |
| 2026-04-24 09:24 | 44.63849 | 11.31225 | 6957 ft | 278 kts | 63° |
| 2026-04-24 09:25 | 44.64592 | 11.33774 | 7666 ft | 286 kts | 71° |
| 2026-04-24 09:25 | 44.65107 | 11.36496 | 8366 ft | 295 kts | 75° |
| 2026-04-24 09:25 | 44.65642 | 11.39338 | 8877 ft | 310 kts | 73° |
| 2026-04-24 09:25 | 44.66320 | 11.42288 | 9388 ft | 323 kts | 65° |
| 2026-04-24 09:26 | 44.67493 | 11.45035 | 9921 ft | 334 kts | 50° |
| 2026-04-24 09:26 | 44.69180 | 11.47339 | 10460 ft | 343 kts | 40° |
| 2026-04-24 09:26 | 44.70981 | 11.49602 | 10981 ft | 352 kts | 41° |
| 2026-04-24 09:26 | 44.72774 | 11.51948 | 11528 ft | 360 kts | 43° |
| 2026-04-24 09:27 | 44.74592 | 11.54420 | 12122 ft | 365 kts | 42° |
| 2026-04-24 09:27 | 44.76635 | 11.56441 | 13114 ft | 356 kts | 24° |
| 2026-04-24 09:27 | 44.78994 | 11.57423 | 14047 ft | 353 kts | 10° |
| 2026-04-24 09:27 | 44.81431 | 11.57932 | 14689 ft | 355 kts | 8° |
| 2026-04-24 09:28 | 44.83895 | 11.58387 | 15312 ft | 358 kts | 8° |
| 2026-04-24 09:28 | 44.86374 | 11.58815 | 15927 ft | 361 kts | 8° |
| 2026-04-24 09:28 | 44.88877 | 11.59244 | 16526 ft | 363 kts | 8° |
| 2026-04-24 09:28 | 44.91396 | 11.59685 | 17117 ft | 366 kts | 9° |
| 2026-04-24 09:29 | 44.93940 | 11.60143 | 17545 ft | 374 kts | 9° |
| 2026-04-24 09:29 | 44.96566 | 11.60626 | 17677 ft | 388 kts | 9° |
| 2026-04-24 09:29 | 44.99288 | 11.61135 | 17812 ft | 400 kts | 10° |
| 2026-04-24 09:29 | 45.02089 | 11.61664 | 17950 ft | 412 kts | 9° |
| 2026-04-24 09:30 | 45.04958 | 11.62203 | 18205 ft | 419 kts | 9° |
| 2026-04-24 09:30 | 45.08802 | 11.62920 | 18697 ft | 423 kts | 10° |
| 2026-04-24 09:30 | 45.10779 | 11.63287 | 18939 ft | 425 kts | 10° |
| 2026-04-24 09:30 | 45.13682 | 11.63828 | 19288 ft | 427 kts | 10° |
| 2026-04-24 09:31 | 45.16678 | 11.64340 | 19645 ft | 430 kts | 8° |
| 2026-04-24 09:31 | 45.19629 | 11.64674 | 19978 ft | 433 kts | 6° |
| 2026-04-24 09:31 | 45.22648 | 11.64885 | 20307 ft | 436 kts | 5° |
| 2026-04-24 09:31 | 45.25689 | 11.65032 | 20640 ft | 438 kts | 5° |
| 2026-04-24 09:32 | 45.28746 | 11.65167 | 20964 ft | 440 kts | 5° |
| 2026-04-24 09:32 | 45.31815 | 11.65319 | 21273 ft | 443 kts | 5° |
| 2026-04-24 09:32 | 45.34899 | 11.65505 | 21572 ft | 445 kts | 6° |
| 2026-04-24 09:32 | 45.38001 | 11.65720 | 21865 ft | 447 kts | 6° |
| 2026-04-24 09:33 | 45.41110 | 11.65954 | 22169 ft | 448 kts | 6° |
| 2026-04-24 09:33 | 45.44233 | 11.66195 | 22460 ft | 450 kts | 6° |
| 2026-04-24 09:33 | 45.47369 | 11.66433 | 22749 ft | 452 kts | 6° |
| 2026-04-24 09:33 | 45.50519 | 11.66671 | 23040 ft | 454 kts | 6° |
| 2026-04-24 09:34 | 45.53683 | 11.66908 | 23324 ft | 456 kts | 6° |
| 2026-04-24 09:34 | 45.56857 | 11.67141 | 23617 ft | 458 kts | 6° |
| 2026-04-24 09:34 | 45.60045 | 11.67373 | 23856 ft | 459 kts | 6° |
| 2026-04-24 09:34 | 45.63259 | 11.67450 | 24076 ft | 464 kts | 359° |
| 2026-04-24 09:35 | 45.66461 | 11.66705 | 24304 ft | 470 kts | 350° |
| 2026-04-24 09:35 | 45.69643 | 11.65591 | 24521 ft | 471 kts | 350° |
| 2026-04-24 09:35 | 45.72837 | 11.64473 | 24738 ft | 473 kts | 350° |
| 2026-04-24 09:35 | 45.76037 | 11.63355 | 24950 ft | 474 kts | 350° |
| 2026-04-24 09:36 | 45.79246 | 11.62231 | 25174 ft | 475 kts | 350° |
| 2026-04-24 09:36 | 45.82418 | 11.61122 | 25386 ft | 476 kts | 350° |
| 2026-04-24 09:36 | 45.85639 | 11.59995 | 25607 ft | 477 kts | 350° |
| 2026-04-24 09:36 | 45.88871 | 11.58858 | 25858 ft | 478 kts | 350° |
| 2026-04-24 09:37 | 45.92095 | 11.57720 | 26195 ft | 477 kts | 350° |
| 2026-04-24 09:37 | 45.95307 | 11.56585 | 26535 ft | 476 kts | 350° |
| 2026-04-24 09:37 | 45.98520 | 11.55450 | 26869 ft | 475 kts | 350° |
| 2026-04-24 09:37 | 46.01726 | 11.54320 | 27231 ft | 473 kts | 350° |
| 2026-04-24 09:38 | 46.04919 | 11.53196 | 27595 ft | 472 kts | 350° |
| 2026-04-24 09:38 | 46.08101 | 11.52076 | 27982 ft | 470 kts | 350° |
| 2026-04-24 09:38 | 46.11270 | 11.50956 | 28388 ft | 468 kts | 350° |
| 2026-04-24 09:38 | 46.14433 | 11.49833 | 28697 ft | 467 kts | 350° |
| 2026-04-24 09:39 | 46.17590 | 11.48711 | 29014 ft | 467 kts | 350° |
| 2026-04-24 09:39 | 46.20746 | 11.47590 | 29340 ft | 467 kts | 350° |
| 2026-04-24 09:39 | 46.23893 | 11.46469 | 29670 ft | 466 kts | 350° |
| 2026-04-24 09:39 | 46.27036 | 11.45350 | 30051 ft | 464 kts | 350° |
| 2026-04-24 09:40 | 46.30174 | 11.44235 | 30390 ft | 463 kts | 350° |
| 2026-04-24 09:40 | 46.33302 | 11.43123 | 30686 ft | 463 kts | 350° |
| 2026-04-24 09:40 | 46.36425 | 11.42010 | 30963 ft | 462 kts | 350° |
| 2026-04-24 09:40 | 46.39537 | 11.40896 | 31237 ft | 462 kts | 350° |
| 2026-04-24 09:41 | 46.42663 | 11.39773 | 31505 ft | 461 kts | 350° |
| 2026-04-24 09:41 | 46.45735 | 11.38668 | 31788 ft | 461 kts | 350° |
| 2026-04-24 09:41 | 46.48844 | 11.37551 | 32094 ft | 460 kts | 350° |
| 2026-04-24 09:41 | 46.51951 | 11.36438 | 32392 ft | 459 kts | 350° |
| 2026-04-24 09:42 | 46.55053 | 11.35326 | 32655 ft | 459 kts | 350° |
| 2026-04-24 09:42 | 46.58160 | 11.34210 | 32848 ft | 461 kts | 350° |
| 2026-04-24 09:42 | 46.61271 | 11.33092 | 33084 ft | 461 kts | 350° |
| 2026-04-24 09:42 | 46.64384 | 11.31973 | 33383 ft | 460 kts | 350° |
| 2026-04-24 09:43 | 46.67486 | 11.30852 | 33686 ft | 459 kts | 350° |
| 2026-04-24 09:43 | 46.70592 | 11.29725 | 33946 ft | 459 kts | 349° |
| 2026-04-24 09:43 | 46.73698 | 11.28596 | 34158 ft | 460 kts | 349° |
| 2026-04-24 09:43 | 46.76802 | 11.27468 | 34202 ft | 459 kts | 349° |
| 2026-04-24 09:44 | 46.83006 | 11.25216 | 34195 ft | 459 kts | 350° |
| 2026-04-24 09:44 | 46.89169 | 11.22969 | 34196 ft | 455 kts | 350° |
| 2026-04-24 09:45 | 46.95162 | 11.19950 | 34201 ft | 462 kts | 335° |
| 2026-04-24 09:45 | 47.00474 | 11.14646 | 34188 ft | 467 kts | 328° |
| 2026-04-24 09:46 | 47.05745 | 11.09060 | 34179 ft | 468 kts | 328° |
| 2026-04-24 09:46 | 47.11027 | 11.03470 | 34195 ft | 468 kts | 328° |
| 2026-04-24 09:47 | 47.16316 | 10.97874 | 34203 ft | 468 kts | 328° |
| 2026-04-24 09:47 | 47.21588 | 10.92255 | 34218 ft | 468 kts | 328° |
| 2026-04-24 09:48 | 47.26853 | 10.86623 | 34220 ft | 468 kts | 328° |
| 2026-04-24 09:48 | 47.32116 | 10.80984 | 34208 ft | 468 kts | 328° |
| 2026-04-24 09:49 | 47.37384 | 10.75325 | 34206 ft | 469 kts | 328° |
| 2026-04-24 09:49 | 47.42654 | 10.69652 | 34212 ft | 469 kts | 327° |
| 2026-04-24 09:50 | 47.47928 | 10.63958 | 34226 ft | 470 kts | 327° |
| 2026-04-24 09:50 | 47.53203 | 10.58257 | 34223 ft | 470 kts | 327° |
| 2026-04-24 09:51 | 47.58480 | 10.52542 | 34243 ft | 469 kts | 327° |
| 2026-04-24 09:51 | 47.63749 | 10.46818 | 34223 ft | 470 kts | 327° |
| 2026-04-24 09:52 | 47.69022 | 10.41071 | 34235 ft | 471 kts | 327° |
| 2026-04-24 09:52 | 47.74263 | 10.35332 | 34239 ft | 471 kts | 327° |
| 2026-04-24 09:53 | 47.79638 | 10.29795 | 34250 ft | 469 kts | 332° |
| 2026-04-24 09:53 | 47.85231 | 10.24808 | 34256 ft | 468 kts | 333° |
| 2026-04-24 09:54 | 47.90845 | 10.19903 | 34249 ft | 468 kts | 333° |
| 2026-04-24 09:54 | 47.96447 | 10.14936 | 34236 ft | 469 kts | 332° |
| 2026-04-24 09:55 | 48.02048 | 10.09909 | 34239 ft | 470 kts | 332° |
| 2026-04-24 09:55 | 48.07646 | 10.04860 | 34250 ft | 470 kts | 332° |
| 2026-04-24 09:56 | 48.13240 | 9.99814 | 34249 ft | 469 kts | 332° |
| 2026-04-24 09:56 | 48.18832 | 9.94763 | 34252 ft | 469 kts | 332° |
| 2026-04-24 09:57 | 48.24385 | 9.89748 | 34246 ft | 469 kts | 332° |
| 2026-04-24 09:57 | 48.29961 | 9.84636 | 34235 ft | 470 kts | 331° |
| 2026-04-24 09:58 | 48.35512 | 9.79423 | 34237 ft | 471 kts | 330° |
| 2026-04-24 09:58 | 48.41056 | 9.74182 | 34236 ft | 471 kts | 330° |
| 2026-04-24 09:59 | 48.46612 | 9.68939 | 34029 ft | 471 kts | 330° |
| 2026-04-24 09:59 | 48.49387 | 9.66317 | 33759 ft | 471 kts | 330° |
| 2026-04-24 09:59 | 48.52167 | 9.63691 | 33487 ft | 472 kts | 330° |
| 2026-04-24 10:00 | 48.54947 | 9.61061 | 33220 ft | 472 kts | 330° |
| 2026-04-24 10:00 | 48.57732 | 9.58422 | 32940 ft | 473 kts | 330° |
| 2026-04-24 10:00 | 48.60520 | 9.55777 | 32684 ft | 474 kts | 330° |
| 2026-04-24 10:00 | 48.63320 | 9.53116 | 32426 ft | 476 kts | 330° |
| 2026-04-24 10:01 | 48.66131 | 9.50438 | 32166 ft | 477 kts | 329° |
| 2026-04-24 10:01 | 48.68943 | 9.47754 | 31914 ft | 478 kts | 329° |
| 2026-04-24 10:01 | 48.71755 | 9.45065 | 31655 ft | 478 kts | 329° |
| 2026-04-24 10:01 | 48.74568 | 9.42377 | 31411 ft | 478 kts | 329° |
| 2026-04-24 10:02 | 48.77388 | 9.39682 | 31164 ft | 479 kts | 329° |
| 2026-04-24 10:02 | 48.80166 | 9.37024 | 30922 ft | 479 kts | 329° |
| 2026-04-24 10:02 | 48.82990 | 9.34318 | 30679 ft | 480 kts | 329° |
| 2026-04-24 10:02 | 48.85817 | 9.31602 | 30436 ft | 480 kts | 329° |
| 2026-04-24 10:03 | 48.88643 | 9.28880 | 30186 ft | 481 kts | 329° |
| 2026-04-24 10:03 | 48.91471 | 9.26156 | 29952 ft | 481 kts | 329° |
| 2026-04-24 10:03 | 48.94304 | 9.23422 | 29768 ft | 482 kts | 328° |
| 2026-04-24 10:03 | 48.97137 | 9.20682 | 29609 ft | 483 kts | 328° |
| 2026-04-24 10:04 | 48.99984 | 9.17935 | 29440 ft | 484 kts | 328° |
| 2026-04-24 10:04 | 49.02737 | 9.15276 | 29270 ft | 484 kts | 328° |
| 2026-04-24 10:04 | 49.05667 | 9.12435 | 29103 ft | 484 kts | 328° |
| 2026-04-24 10:04 | 49.08512 | 9.09668 | 28883 ft | 485 kts | 328° |
| 2026-04-24 10:05 | 49.11357 | 9.06899 | 28617 ft | 485 kts | 328° |
| 2026-04-24 10:05 | 49.14203 | 9.04124 | 28352 ft | 486 kts | 328° |
| 2026-04-24 10:05 | 49.17050 | 9.01342 | 28083 ft | 486 kts | 328° |
| 2026-04-24 10:05 | 49.19904 | 8.98551 | 27817 ft | 486 kts | 328° |
| 2026-04-24 10:06 | 49.22751 | 8.95762 | 27557 ft | 486 kts | 328° |
| 2026-04-24 10:06 | 49.28692 | 8.90808 | 27048 ft | 487 kts | 334° |
| 2026-04-24 10:06 | 49.31716 | 8.88461 | 26788 ft | 486 kts | 334° |
| 2026-04-24 10:07 | 49.34731 | 8.86125 | 26535 ft | 484 kts | 334° |
| 2026-04-24 10:07 | 49.37735 | 8.83795 | 26261 ft | 483 kts | 334° |
| 2026-04-24 10:07 | 49.40690 | 8.81501 | 25968 ft | 481 kts | 334° |
| 2026-04-24 10:07 | 49.43702 | 8.79163 | 25665 ft | 477 kts | 334° |
| 2026-04-24 10:08 | 49.46656 | 8.76869 | 25382 ft | 475 kts | 334° |
| 2026-04-24 10:08 | 49.49596 | 8.74572 | 25095 ft | 472 kts | 333° |
| 2026-04-24 10:08 | 49.52346 | 8.71826 | 24815 ft | 471 kts | 325° |
| 2026-04-24 10:08 | 49.54979 | 8.68960 | 24549 ft | 469 kts | 326° |
| 2026-04-24 10:09 | 49.57664 | 8.66120 | 24261 ft | 467 kts | 327° |
| 2026-04-24 10:09 | 49.60365 | 8.63315 | 23985 ft | 466 kts | 327° |
| 2026-04-24 10:09 | 49.63055 | 8.60542 | 23688 ft | 464 kts | 327° |
| 2026-04-24 10:09 | 49.65726 | 8.57780 | 23367 ft | 461 kts | 327° |
| 2026-04-24 10:10 | 49.67522 | 8.55913 | 23149 ft | 459 kts | 327° |
| 2026-04-24 10:10 | 49.70158 | 8.53150 | 22828 ft | 457 kts | 326° |
| 2026-04-24 10:10 | 49.73623 | 8.49492 | 22375 ft | 454 kts | 326° |
| 2026-04-24 10:10 | 49.75372 | 8.47642 | 22031 ft | 451 kts | 326° |
| 2026-04-24 10:11 | 49.77952 | 8.44908 | 21520 ft | 447 kts | 326° |
| 2026-04-24 10:11 | 49.80514 | 8.42197 | 21022 ft | 444 kts | 326° |
| 2026-04-24 10:11 | 49.83048 | 8.39508 | 20523 ft | 440 kts | 326° |
| 2026-04-24 10:11 | 49.85534 | 8.36866 | 20055 ft | 437 kts | 326° |
| 2026-04-24 10:12 | 49.88035 | 8.34207 | 19575 ft | 434 kts | 326° |
| 2026-04-24 10:12 | 49.90510 | 8.31571 | 19105 ft | 430 kts | 326° |
| 2026-04-24 10:12 | 49.92966 | 8.28951 | 18643 ft | 426 kts | 326° |
| 2026-04-24 10:12 | 49.95396 | 8.26356 | 18118 ft | 422 kts | 326° |
| 2026-04-24 10:13 | 49.97794 | 8.23794 | 17602 ft | 415 kts | 326° |
| 2026-04-24 10:13 | 50.00152 | 8.21275 | 17082 ft | 407 kts | 326° |
| 2026-04-24 10:13 | 50.02466 | 8.18801 | 16575 ft | 402 kts | 326° |
| 2026-04-24 10:13 | 50.04754 | 8.16347 | 16078 ft | 397 kts | 326° |
| 2026-04-24 10:14 | 50.07021 | 8.13911 | 15586 ft | 394 kts | 326° |
| 2026-04-24 10:14 | 50.09264 | 8.11496 | 15102 ft | 390 kts | 326° |
| 2026-04-24 10:14 | 50.11486 | 8.09105 | 14628 ft | 387 kts | 326° |
| 2026-04-24 10:14 | 50.13691 | 8.06728 | 14159 ft | 384 kts | 326° |
| 2026-04-24 10:15 | 50.15882 | 8.04370 | 13639 ft | 380 kts | 326° |
| 2026-04-24 10:15 | 50.18044 | 8.02040 | 13167 ft | 376 kts | 326° |
| 2026-04-24 10:15 | 50.20194 | 7.99721 | 12781 ft | 374 kts | 326° |
| 2026-04-24 10:15 | 50.22330 | 7.97412 | 12402 ft | 372 kts | 326° |
| 2026-04-24 10:16 | 50.24453 | 7.95116 | 12073 ft | 370 kts | 326° |
| 2026-04-24 10:16 | 50.26567 | 7.92827 | 11780 ft | 369 kts | 326° |
| 2026-04-24 10:16 | 50.28668 | 7.90547 | 11435 ft | 367 kts | 326° |
| 2026-04-24 10:16 | 50.30759 | 7.88275 | 11045 ft | 364 kts | 326° |
| 2026-04-24 10:17 | 50.32835 | 7.86016 | 10664 ft | 362 kts | 326° |
| 2026-04-24 10:17 | 50.34896 | 7.83769 | 10277 ft | 360 kts | 326° |
| 2026-04-24 10:17 | 50.36938 | 7.81539 | 9868 ft | 355 kts | 327° |
| 2026-04-24 10:17 | 50.38937 | 7.79353 | 9451 ft | 345 kts | 326° |
| 2026-04-24 10:18 | 50.40855 | 7.77252 | 9045 ft | 337 kts | 327° |
| 2026-04-24 10:18 | 50.42758 | 7.75172 | 8636 ft | 330 kts | 327° |
| 2026-04-24 10:18 | 50.44624 | 7.73130 | 8233 ft | 326 kts | 327° |
| 2026-04-24 10:18 | 50.46476 | 7.71100 | 7834 ft | 324 kts | 327° |
| 2026-04-24 10:19 | 50.48316 | 7.69081 | 7438 ft | 322 kts | 327° |
| 2026-04-24 10:19 | 50.50146 | 7.67067 | 7049 ft | 320 kts | 326° |
| 2026-04-24 10:19 | 50.51847 | 7.64817 | 6664 ft | 320 kts | 320° |
| 2026-04-24 10:19 | 50.53487 | 7.62477 | 6254 ft | 317 kts | 320° |
| 2026-04-24 10:20 | 50.55120 | 7.60155 | 5887 ft | 315 kts | 320° |
| 2026-04-24 10:20 | 50.56725 | 7.57876 | 5524 ft | 307 kts | 320° |
| 2026-04-24 10:20 | 50.58281 | 7.55664 | 5183 ft | 294 kts | 320° |
| 2026-04-24 10:20 | 50.59743 | 7.53575 | 4826 ft | 275 kts | 320° |
| 2026-04-24 10:21 | 50.61117 | 7.51600 | 4448 ft | 260 kts | 320° |
| 2026-04-24 10:21 | 50.62430 | 7.49725 | 4261 ft | 252 kts | 320° |
| 2026-04-24 10:21 | 50.63735 | 7.47867 | 4137 ft | 252 kts | 320° |
| 2026-04-24 10:21 | 50.65027 | 7.46022 | 4003 ft | 250 kts | 320° |
| 2026-04-24 10:22 | 50.66316 | 7.44180 | 3876 ft | 250 kts | 320° |
| 2026-04-24 10:22 | 50.67602 | 7.42342 | 3750 ft | 249 kts | 320° |
| 2026-04-24 10:22 | 50.68882 | 7.40509 | 3624 ft | 248 kts | 320° |
| 2026-04-24 10:22 | 50.70160 | 7.38679 | 3496 ft | 247 kts | 320° |
| 2026-04-24 10:23 | 50.71403 | 7.36895 | 3360 ft | 235 kts | 320° |
| 2026-04-24 10:23 | 50.72585 | 7.35200 | 3234 ft | 224 kts | 320° |
| 2026-04-24 10:23 | 50.73712 | 7.33583 | 3120 ft | 214 kts | 320° |
| 2026-04-24 10:23 | 50.74794 | 7.32028 | 3025 ft | 207 kts | 320° |
| 2026-04-24 10:24 | 50.75843 | 7.30522 | 2897 ft | 205 kts | 320° |
| 2026-04-24 10:24 | 50.76909 | 7.28989 | 2643 ft | 204 kts | 319° |
| 2026-04-24 10:24 | 50.77939 | 7.27506 | 2378 ft | 197 kts | 319° |
| 2026-04-24 10:24 | 50.78934 | 7.26074 | 2118 ft | 190 kts | 318° |
| 2026-04-24 10:25 | 50.79862 | 7.24736 | 1874 ft | 176 kts | 318° |
| 2026-04-24 10:25 | 50.80721 | 7.23498 | 1652 ft | 159 kts | 318° |
| 2026-04-24 10:25 | 50.81514 | 7.22354 | 1417 ft | 150 kts | 317° |
| 2026-04-24 10:25 | 50.82273 | 7.21260 | 1205 ft | 146 kts | 317° |
| 2026-04-24 10:26 | 50.83018 | 7.20184 | 1007 ft | 145 kts | 317° |
| 2026-04-24 10:26 | 50.83760 | 7.19113 | 814 ft | 144 kts | 317° |
| 2026-04-24 10:26 | 50.84497 | 7.18030 | 620 ft | 144 kts | 316° |
| 2026-04-24 10:26 | 50.85239 | 7.16965 | 428 ft | 143 kts | 319° |
| 2026-04-24 10:27 | 50.85970 | 7.15917 | 310 ft | 134 kts | 317° |
| 2026-04-24 10:27 | 50.86577 | 7.15039 | 286 ft | 105 kts | 318° |
| 2026-04-24 10:27 | 50.87070 | 7.14323 | 266 ft | 89 kts | 317° |
| 2026-04-24 10:27 | 50.87495 | 7.13709 | 252 ft | 76 kts | 318° |
| 2026-04-24 10:28 | 50.87848 | 7.13196 | 251 ft | 46 kts | 317° |
| 2026-04-24 10:28 | 50.87996 | 7.12948 | 251 ft | 25 kts | 294° |
| 2026-04-24 10:28 | 50.87995 | 7.12741 | 250 ft | 14 kts | 254° |
| 2026-04-24 10:28 | 50.88001 | 7.12576 | 246 ft | 16 kts | 298° |
| 2026-04-24 10:29 | 50.88060 | 7.12411 | 245 ft | 18 kts | 304° |
| 2026-04-24 10:29 | 50.88129 | 7.12261 | 245 ft | 13 kts | 303° |
| 2026-04-24 10:29 | 50.88184 | 7.12131 | 245 ft | 15 kts | 310° |
| 2026-04-24 10:29 | 50.88243 | 7.12010 | 245 ft | 11 kts | 306° |
| 2026-04-24 10:30 | 50.88256 | 7.11973 | 247 ft | 2 kts | 278° |
| 2026-04-24 10:30 | 50.88230 | 7.11940 | 245 ft | 7 kts | 210° |
| 2026-04-24 10:30 | 50.88204 | 7.11910 | 245 ft | 0 kts | 216° |
| 2026-04-24 10:30 | 50.88202 | 7.11907 | 245 ft | 0 kts | 216° |